createdAt,value
2023-03-02T00:02:01.951Z,1.78
2023-03-02T00:04:31.846Z,1.74
2023-03-02T00:07:00.373Z,1.73
2023-03-02T00:09:22.255Z,1.73
2023-03-02T00:11:45.558Z,1.75
2023-03-02T00:14:07.491Z,1.82
2023-03-02T00:16:29.315Z,1.83
2023-03-02T00:18:51.233Z,1.85
2023-03-02T00:21:12.857Z,1.88
2023-03-02T00:23:34.639Z,1.91
2023-03-02T00:25:56.263Z,1.95
2023-03-02T00:28:17.835Z,1.99
2023-03-02T00:30:40.031Z,1.98
2023-03-02T00:33:01.675Z,1.94
2023-03-02T00:35:23.310Z,1.93
2023-03-02T00:37:45.289Z,1.86
2023-03-02T00:40:09.679Z,1.83
2023-03-02T00:42:31.236Z,1.80
2023-03-02T00:44:53.561Z,1.71
2023-03-02T00:47:15.189Z,1.71
2023-03-02T00:49:36.866Z,1.69
2023-03-02T00:51:58.526Z,1.69
2023-03-02T00:54:20.216Z,1.67
2023-03-02T00:56:42.702Z,1.67
2023-03-02T00:59:06.546Z,1.67
2023-03-02T01:01:28.620Z,1.66
2023-03-02T01:03:50.317Z,1.63
2023-03-02T01:06:20.352Z,1.62
2023-03-02T01:08:42.047Z,1.59
2023-03-02T01:11:03.867Z,1.55
2023-03-02T01:13:25.483Z,1.49
2023-03-02T01:15:47.158Z,1.42
2023-03-02T01:18:08.855Z,1.34
2023-03-02T01:20:30.498Z,1.29
2023-03-02T01:22:52.158Z,1.27
2023-03-02T01:25:14.061Z,1.25
2023-03-02T01:27:37.293Z,1.25
2023-03-02T01:29:58.964Z,1.21
2023-03-02T01:32:20.736Z,1.16
2023-03-02T01:34:42.929Z,1.14
2023-03-02T01:37:04.633Z,1.14
2023-03-02T01:39:26.336Z,1.10
2023-03-02T01:41:52.181Z,1.09
2023-03-02T01:44:57.081Z,1.03
2023-03-02T01:47:28.478Z,1.01
2023-03-02T01:50:21.856Z,1.00
2023-03-02T01:52:47.426Z,0.97
2023-03-02T01:55:15.120Z,0.94
2023-03-02T01:57:46.485Z,0.92
2023-03-02T02:00:11.990Z,0.92
2023-03-02T02:02:34.745Z,0.93
2023-03-02T02:04:57.252Z,0.94
2023-03-02T02:07:19.120Z,0.93
2023-03-02T02:09:47.670Z,0.95
2023-03-02T02:12:19.970Z,0.95
2023-03-02T02:14:43.171Z,0.95
2023-03-02T02:17:05.629Z,0.94
2023-03-02T02:20:10.964Z,0.95
2023-03-02T02:23:09.829Z,0.90
2023-03-02T02:25:52.948Z,0.87
2023-03-02T02:28:24.469Z,0.87
2023-03-02T02:30:52.459Z,0.86
2023-03-02T02:33:23.334Z,0.87
2023-03-02T02:35:47.873Z,0.87
2023-03-02T02:38:13.829Z,0.88
2023-03-02T02:40:55.440Z,0.87
2023-03-02T02:43:23.664Z,0.84
2023-03-02T02:45:49.052Z,0.81
2023-03-02T02:48:18.168Z,0.83
2023-03-02T02:50:39.806Z,0.82
2023-03-02T02:53:12.420Z,0.80
2023-03-02T02:55:35.756Z,0.79
2023-03-02T02:58:02.929Z,0.78
2023-03-02T03:00:25.938Z,0.80
2023-03-02T03:02:58.078Z,0.83
2023-03-02T03:05:19.884Z,0.84
2023-03-02T03:07:41.572Z,0.87
2023-03-02T03:10:39.942Z,0.94
2023-03-02T03:13:02.590Z,0.94
2023-03-02T03:15:24.232Z,0.91
2023-03-02T03:17:56.083Z,0.89
2023-03-02T03:20:19.833Z,0.87
2023-03-02T03:22:41.768Z,0.90
2023-03-02T03:25:06.477Z,0.88
2023-03-02T03:27:28.755Z,0.87
2023-03-02T03:29:51.181Z,0.88
2023-03-02T03:32:15.304Z,0.89
2023-03-02T03:34:41.749Z,0.90
2023-03-02T03:37:14.385Z,0.90
2023-03-02T03:39:36.373Z,0.88
2023-03-02T03:41:59.122Z,0.89
2023-03-02T03:44:21.522Z,0.87
2023-03-02T03:46:43.143Z,0.90
2023-03-02T03:49:05.858Z,0.93
2023-03-02T03:51:28.381Z,0.95
2023-03-02T03:53:59.965Z,0.93
2023-03-02T03:56:34.413Z,0.96
2023-03-02T03:59:06.434Z,0.96
2023-03-02T04:01:40.121Z,0.97
2023-03-02T04:04:05.064Z,1.00
2023-03-02T04:06:26.680Z,1.00
2023-03-02T04:08:48.375Z,1.02
2023-03-02T04:11:09.989Z,1.01
2023-03-02T04:13:31.949Z,0.97
2023-03-02T04:15:53.643Z,0.98
2023-03-02T04:18:15.569Z,0.97
2023-03-02T04:20:37.223Z,1.00
2023-03-02T04:22:59.671Z,1.01
2023-03-02T04:25:25.021Z,0.97
2023-03-02T04:27:53.038Z,0.92
2023-03-02T04:30:19.751Z,0.89
2023-03-02T04:32:41.366Z,0.86
2023-03-02T04:35:03.458Z,0.85
2023-03-02T04:37:25.315Z,0.83
2023-03-02T04:39:51.167Z,0.77
2023-03-02T04:42:12.799Z,0.75
2023-03-02T04:44:34.495Z,0.75
2023-03-02T04:46:56.275Z,0.72
2023-03-02T04:49:19.854Z,0.70
2023-03-02T04:51:45.921Z,0.70
2023-03-02T04:54:23.438Z,0.69
2023-03-02T04:56:48.469Z,0.61
2023-03-02T04:59:10.403Z,0.60
2023-03-02T05:01:32.063Z,0.57
2023-03-02T05:03:54.478Z,0.53
2023-03-02T05:06:17.227Z,0.52
2023-03-02T05:08:39.239Z,0.49
2023-03-02T05:11:01.639Z,0.46
2023-03-02T05:13:23.455Z,0.44
2023-03-02T05:15:45.143Z,0.41
2023-03-02T05:18:10.695Z,0.38
2023-03-02T05:20:33.012Z,0.34
2023-03-02T05:23:01.399Z,0.31
2023-03-02T05:25:23.514Z,0.32
2023-03-02T05:27:46.199Z,0.31
2023-03-02T05:30:09.067Z,0.27
2023-03-02T05:32:30.762Z,0.24
2023-03-02T05:34:52.415Z,0.27
2023-03-02T05:37:14.017Z,0.25
2023-03-02T05:39:35.615Z,0.23
2023-03-02T05:41:57.280Z,0.16
2023-03-02T05:44:18.862Z,0.14
2023-03-02T05:46:41.170Z,0.14
2023-03-02T05:49:02.945Z,0.15
2023-03-02T05:51:24.573Z,0.15
2023-03-02T05:53:46.637Z,0.15
2023-03-02T05:56:08.844Z,0.17
2023-03-02T05:58:30.990Z,0.17
2023-03-02T06:00:52.680Z,0.16
2023-03-02T06:03:15.154Z,0.12
2023-03-02T06:05:37.008Z,0.14
2023-03-02T06:07:58.826Z,0.12
2023-03-02T06:10:20.748Z,0.11
2023-03-02T06:12:42.547Z,0.11
2023-03-02T06:15:06.703Z,0.10
2023-03-02T06:17:28.338Z,0.07
2023-03-02T06:19:50.047Z,0.08
2023-03-02T06:22:11.751Z,0.05
2023-03-02T06:24:33.397Z,0.03
2023-03-02T06:26:55.664Z,0.01
2023-03-02T06:29:17.337Z,-0.01
2023-03-02T06:31:39.024Z,0.01
2023-03-02T06:34:00.740Z,0.03
2023-03-02T06:36:22.488Z,0.04
2023-03-02T06:38:44.533Z,0.07
2023-03-02T06:41:06.194Z,0.08
2023-03-02T06:43:27.912Z,0.09
2023-03-02T06:45:51.012Z,0.13
2023-03-02T06:48:12.668Z,0.14
2023-03-02T06:50:35.126Z,0.15
2023-03-02T06:52:57.026Z,0.19
2023-03-02T06:55:18.707Z,0.23
2023-03-02T06:57:40.263Z,0.26
2023-03-02T07:00:10.258Z,0.43
2023-03-02T07:02:32.067Z,0.70
2023-03-02T07:04:53.910Z,0.80
2023-03-02T07:07:15.470Z,0.95
2023-03-02T07:09:37.394Z,1.02
2023-03-02T07:11:59.007Z,1.11
2023-03-02T07:14:20.686Z,1.07
2023-03-02T07:16:42.488Z,1.00
2023-03-02T07:19:04.172Z,0.94
2023-03-02T07:21:26.346Z,0.91
2023-03-02T07:23:48.125Z,0.85
2023-03-02T07:26:10.217Z,0.87
2023-03-02T07:28:31.883Z,0.88
2023-03-02T07:30:54.505Z,0.92
2023-03-02T07:33:16.211Z,0.94
2023-03-02T07:35:38.016Z,0.99
2023-03-02T07:38:00.008Z,1.01
2023-03-02T07:40:21.607Z,0.97
2023-03-02T07:42:43.286Z,1.01
2023-03-02T07:45:06.458Z,1.11
2023-03-02T07:47:28.009Z,1.19
2023-03-02T07:49:49.997Z,1.25
2023-03-02T07:52:11.692Z,1.31
2023-03-02T07:54:33.430Z,1.39
2023-03-02T07:56:55.085Z,1.45
2023-03-02T07:59:16.688Z,1.49
2023-03-02T08:01:38.497Z,1.54
2023-03-02T08:04:01.079Z,1.60
2023-03-02T08:06:22.948Z,1.67
2023-03-02T08:08:44.769Z,1.71
2023-03-02T08:11:17.294Z,1.76
2023-03-02T08:13:39.620Z,1.82
2023-03-02T08:16:08.525Z,1.91
2023-03-02T08:18:30.987Z,1.95
2023-03-02T08:20:53.861Z,1.96
2023-03-02T08:23:15.576Z,2.06
2023-03-02T08:25:38.583Z,2.10
2023-03-02T08:28:00.138Z,2.20
2023-03-02T08:30:21.910Z,2.33
2023-03-02T08:32:43.547Z,2.38
2023-03-02T08:35:05.973Z,2.43
2023-03-02T08:37:27.699Z,2.54
2023-03-02T08:39:49.275Z,2.68
2023-03-02T08:42:10.878Z,2.77
2023-03-02T08:44:32.567Z,2.81
2023-03-02T08:46:55.129Z,2.83
2023-03-02T08:49:18.490Z,2.90
2023-03-02T08:51:40.103Z,2.96
2023-03-02T08:54:01.734Z,3.06
2023-03-02T08:56:34.234Z,3.22
2023-03-02T08:59:01.368Z,3.33
2023-03-02T09:01:33.518Z,3.50
2023-03-02T09:03:57.543Z,3.60
2023-03-02T09:06:19.496Z,3.73
2023-03-02T09:08:42.318Z,3.86
2023-03-02T09:11:04.361Z,4.02
2023-03-02T09:13:25.946Z,4.17
2023-03-02T09:15:48.387Z,4.26
2023-03-02T09:18:10.380Z,4.41
2023-03-02T09:20:33.925Z,4.50
2023-03-02T09:22:56.545Z,4.57
2023-03-02T09:25:20.524Z,4.67
2023-03-02T09:27:42.136Z,4.75
2023-03-02T09:30:04.290Z,4.76
2023-03-02T09:32:25.911Z,4.86
2023-03-02T09:34:47.686Z,4.91
2023-03-02T09:37:09.355Z,4.97
2023-03-02T09:39:30.986Z,5.01
2023-03-02T09:42:14.630Z,5.07
2023-03-02T09:45:03.253Z,5.06
2023-03-02T09:47:56.675Z,5.13
2023-03-02T09:50:39.344Z,5.21
2023-03-02T09:53:31.469Z,5.28
2023-03-02T09:56:00.409Z,5.38
2023-03-02T09:58:29.208Z,5.47
2023-03-02T10:00:51.454Z,5.54
2023-03-02T10:03:27.149Z,5.62
2023-03-02T10:05:52.109Z,5.70
2023-03-02T10:08:27.123Z,5.81
2023-03-02T10:11:05.490Z,5.94
2023-03-02T10:13:30.121Z,6.00
2023-03-02T10:16:33.960Z,6.16
2023-03-02T10:19:10.786Z,6.24
2023-03-02T10:21:44.044Z,6.23
2023-03-02T10:24:32.839Z,6.29
2023-03-02T10:26:59.880Z,6.35
2023-03-02T10:29:56.823Z,6.39
2023-03-02T10:32:24.390Z,6.42
2023-03-02T10:34:47.923Z,6.39
2023-03-02T10:37:19.061Z,6.47
2023-03-02T10:39:40.768Z,6.59
2023-03-02T10:42:13.345Z,6.75
2023-03-02T10:44:42.119Z,6.85
2023-03-02T10:47:05.967Z,6.96
2023-03-02T10:49:33.243Z,7.07
2023-03-02T10:52:01.583Z,7.10
2023-03-02T10:54:23.590Z,7.15
2023-03-02T10:56:52.148Z,7.23
2023-03-02T10:59:45.749Z,7.31
2023-03-02T11:02:24.147Z,7.34
2023-03-02T11:04:46.037Z,7.28
2023-03-02T11:07:21.237Z,7.36
2023-03-02T11:10:05.684Z,7.44
2023-03-02T11:12:29.727Z,7.54
2023-03-02T11:15:28.244Z,7.61
2023-03-02T11:18:05.907Z,7.63
2023-03-02T11:20:35.674Z,7.64
2023-03-02T11:23:26.484Z,7.67
2023-03-02T11:26:02.084Z,7.77
2023-03-02T11:28:45.893Z,7.79
2023-03-02T11:31:20.614Z,7.89
2023-03-02T11:34:20.377Z,7.93
2023-03-02T11:37:02.336Z,7.96
2023-03-02T11:39:46.434Z,8.09
2023-03-02T11:42:26.918Z,8.11
2023-03-02T11:44:49.637Z,8.15
2023-03-02T11:47:12.408Z,8.24
2023-03-02T11:49:48.049Z,8.33
2023-03-02T11:52:21.474Z,8.44
2023-03-02T11:54:55.452Z,8.50
2023-03-02T11:57:27.931Z,8.54
2023-03-02T11:59:52.374Z,8.63
2023-03-02T12:02:15.484Z,8.75
2023-03-02T12:04:39.375Z,8.74
2023-03-02T12:07:23.643Z,8.71
2023-03-02T12:10:08.463Z,8.72
2023-03-02T12:12:41.021Z,8.75
2023-03-02T12:15:29.105Z,8.78
2023-03-02T12:17:51.991Z,8.76
2023-03-02T12:20:29.723Z,8.72
2023-03-02T12:22:51.629Z,8.81
2023-03-02T12:25:19.256Z,8.88
2023-03-02T12:27:42.134Z,8.89
2023-03-02T12:30:26.143Z,8.91
2023-03-02T12:33:10.590Z,9.07
2023-03-02T12:35:35.059Z,9.19
2023-03-02T12:38:05.065Z,9.27
2023-03-02T12:41:02.627Z,9.27
2023-03-02T12:43:37.054Z,9.30
2023-03-02T12:46:27.083Z,9.38
2023-03-02T12:49:08.719Z,9.47
2023-03-02T12:52:03.401Z,9.54
2023-03-02T12:54:29.268Z,9.64
2023-03-02T12:57:22.401Z,9.75
2023-03-02T12:59:53.424Z,9.83
2023-03-02T13:02:21.497Z,9.93
2023-03-02T13:04:43.250Z,9.98
2023-03-02T13:07:06.049Z,10.09
2023-03-02T13:09:27.726Z,10.20
2023-03-02T13:11:52.060Z,10.31
2023-03-02T13:14:26.209Z,10.33
2023-03-02T13:17:03.145Z,10.35
2023-03-02T13:19:27.305Z,10.30
2023-03-02T13:21:49.323Z,10.26
2023-03-02T13:24:44.917Z,10.29
2023-03-02T13:27:16.698Z,10.33
2023-03-02T13:29:38.309Z,10.41
2023-03-02T13:32:35.718Z,10.52
2023-03-02T13:35:02.825Z,10.58
2023-03-02T13:37:44.180Z,10.64
2023-03-02T13:40:39.067Z,10.69
2023-03-02T13:43:00.700Z,10.65
2023-03-02T13:45:30.130Z,10.56
2023-03-02T13:47:53.633Z,10.57
2023-03-02T13:50:38.865Z,10.56
2023-03-02T13:53:06.298Z,10.64
2023-03-02T13:55:28.739Z,10.71
2023-03-02T13:57:53.333Z,10.81
2023-03-02T14:00:23.214Z,10.84
2023-03-02T14:02:47.537Z,10.79
2023-03-02T14:05:17.433Z,10.73
2023-03-02T14:07:39.057Z,10.72
2023-03-02T14:10:00.703Z,10.76
2023-03-02T14:12:32.909Z,10.72
2023-03-02T14:14:58.269Z,10.69
2023-03-02T14:17:25.088Z,10.68
2023-03-02T14:19:52.512Z,10.69
2023-03-02T14:22:14.125Z,10.75
2023-03-02T14:24:36.579Z,10.81
2023-03-02T14:26:58.354Z,10.86
2023-03-02T14:29:26.168Z,10.86
2023-03-02T14:31:48.317Z,10.80
2023-03-02T14:34:14.337Z,10.89
2023-03-02T14:36:36.126Z,10.95
2023-03-02T14:39:03.965Z,10.99
2023-03-02T14:41:27.844Z,11.04
2023-03-02T14:43:50.338Z,11.06
2023-03-02T14:46:12.009Z,11.05
2023-03-02T14:48:33.656Z,10.94
2023-03-02T14:50:55.357Z,10.91
2023-03-02T14:53:30.379Z,10.92
2023-03-02T14:55:52.031Z,10.89
2023-03-02T14:58:25.299Z,10.92
2023-03-02T15:00:47.064Z,10.90
2023-03-02T15:03:14.710Z,10.89
2023-03-02T15:05:36.374Z,10.85
2023-03-02T15:07:58.744Z,10.88
2023-03-02T15:10:22.266Z,10.91
2023-03-02T15:12:43.980Z,10.92
2023-03-02T15:15:06.378Z,10.91
2023-03-02T15:17:27.978Z,10.95
2023-03-02T15:19:49.568Z,10.88
2023-03-02T15:22:13.306Z,10.77
2023-03-02T15:24:34.949Z,10.79
2023-03-02T15:26:56.633Z,10.82
2023-03-02T15:29:20.437Z,10.83
2023-03-02T15:31:42.132Z,10.81
2023-03-02T15:34:03.967Z,10.67
2023-03-02T15:36:26.459Z,10.66
2023-03-02T15:38:50.833Z,10.64
2023-03-02T15:41:15.404Z,10.60
2023-03-02T15:43:37.326Z,10.63
2023-03-02T15:45:59.965Z,10.64
2023-03-02T15:48:21.543Z,10.67
2023-03-02T15:51:06.695Z,10.66
2023-03-02T15:53:30.468Z,10.63
2023-03-02T15:55:52.275Z,10.57
2023-03-02T15:58:13.969Z,10.59
2023-03-02T16:00:37.759Z,10.57
2023-03-02T16:02:59.516Z,10.53
2023-03-02T16:05:21.146Z,10.48
2023-03-02T16:07:43.194Z,10.43
2023-03-02T16:10:05.584Z,10.34
2023-03-02T16:12:27.278Z,10.28
2023-03-02T16:14:49.350Z,10.30
2023-03-02T16:17:11.803Z,10.23
2023-03-02T16:19:33.452Z,10.18
2023-03-02T16:21:55.907Z,10.10
2023-03-02T16:24:17.550Z,10.01
2023-03-02T16:26:39.331Z,9.86
2023-03-02T16:29:02.349Z,9.74
2023-03-02T16:31:27.003Z,9.57
2023-03-02T16:33:50.592Z,9.49
2023-03-02T16:36:13.884Z,9.47
2023-03-02T16:38:36.889Z,9.39
2023-03-02T16:40:58.596Z,9.32
2023-03-02T16:43:21.080Z,9.21
2023-03-02T16:45:42.790Z,9.12
2023-03-02T16:48:05.686Z,9.06
2023-03-02T16:50:27.365Z,8.96
2023-03-02T16:52:49.024Z,8.89
2023-03-02T16:55:18.769Z,8.81
2023-03-02T16:57:41.251Z,8.74
2023-03-02T17:00:06.023Z,8.66
2023-03-02T17:02:29.223Z,8.58
2023-03-02T17:04:50.785Z,8.47
2023-03-02T17:07:12.374Z,8.37
2023-03-02T17:09:41.392Z,8.36
2023-03-02T17:12:03.977Z,8.33
2023-03-02T17:14:26.398Z,8.29
2023-03-02T17:16:48.224Z,8.24
2023-03-02T17:19:09.805Z,8.15
2023-03-02T17:21:31.407Z,8.06
2023-03-02T17:23:53.093Z,7.99
2023-03-02T17:26:16.897Z,7.92
2023-03-02T17:28:39.261Z,7.80
2023-03-02T17:31:02.351Z,7.72
2023-03-02T17:33:26.245Z,7.68
2023-03-02T17:35:47.952Z,7.62
2023-03-02T17:38:10.052Z,7.55
2023-03-02T17:40:32.494Z,7.49
2023-03-02T17:42:56.187Z,7.43
2023-03-02T17:45:24.207Z,7.40
2023-03-02T17:47:46.284Z,7.37
2023-03-02T17:50:08.829Z,7.31
2023-03-02T17:52:30.561Z,7.20
2023-03-02T17:54:54.088Z,7.11
2023-03-02T17:57:21.776Z,7.01
2023-03-02T17:59:45.889Z,6.93
2023-03-02T18:02:10.184Z,6.86
2023-03-02T18:04:31.797Z,6.81
2023-03-02T18:06:54.141Z,6.71
2023-03-02T18:09:16.198Z,6.67
2023-03-02T18:11:38.356Z,6.63
2023-03-02T18:14:00.347Z,6.58
2023-03-02T18:16:23.464Z,6.54
2023-03-02T18:18:45.203Z,6.51
2023-03-02T18:21:07.139Z,6.46
2023-03-02T18:23:29.985Z,6.38
2023-03-02T18:25:51.699Z,6.34
2023-03-02T18:28:14.750Z,6.29
2023-03-02T18:30:36.428Z,6.22
2023-03-02T18:32:58.222Z,6.16
2023-03-02T18:35:20.318Z,6.11
2023-03-02T18:37:42.101Z,6.09
2023-03-02T18:40:07.402Z,6.01
2023-03-02T18:42:30.394Z,5.96
2023-03-02T18:44:52.118Z,5.89
2023-03-02T18:47:18.000Z,5.83
2023-03-02T18:49:42.534Z,5.80
2023-03-02T18:52:06.907Z,5.73
2023-03-02T18:54:28.489Z,5.65
2023-03-02T18:56:50.121Z,5.61
2023-03-02T18:59:13.194Z,5.59
2023-03-02T19:01:35.706Z,5.52
2023-03-02T19:03:57.638Z,5.44
2023-03-02T19:06:20.525Z,5.41
2023-03-02T19:08:42.407Z,5.35
2023-03-02T19:11:06.676Z,5.30
2023-03-02T19:13:28.658Z,5.25
2023-03-02T19:15:54.679Z,5.21
2023-03-02T19:18:23.010Z,5.19
2023-03-02T19:20:46.597Z,5.18
2023-03-02T19:23:08.235Z,5.15
2023-03-02T19:25:30.815Z,5.09
2023-03-02T19:27:52.455Z,5.01
2023-03-02T19:30:24.388Z,4.97
2023-03-02T19:32:46.842Z,4.92
2023-03-02T19:35:09.191Z,4.86
2023-03-02T19:37:30.851Z,4.83
2023-03-02T19:39:52.519Z,4.77
2023-03-02T19:42:14.143Z,4.67
2023-03-02T19:44:36.641Z,4.65
2023-03-02T19:46:59.178Z,4.62
2023-03-02T19:49:20.768Z,4.58
2023-03-02T19:51:42.466Z,4.54
2023-03-02T19:54:04.337Z,4.54
2023-03-02T19:56:30.338Z,4.50
2023-03-02T19:58:54.020Z,4.43
2023-03-02T20:01:21.634Z,4.37
2023-03-02T20:03:48.015Z,4.31
2023-03-02T20:06:10.361Z,4.27
2023-03-02T20:08:32.051Z,4.21
2023-03-02T20:10:53.755Z,4.16
2023-03-02T20:13:17.638Z,4.14
2023-03-02T20:15:44.540Z,4.11
2023-03-02T20:18:10.619Z,4.02
2023-03-02T20:20:32.537Z,4.02
2023-03-02T20:22:54.187Z,4.01
2023-03-02T20:25:16.255Z,3.97
2023-03-02T20:27:38.023Z,3.91
2023-03-02T20:29:59.745Z,3.88
2023-03-02T20:32:21.777Z,3.83
2023-03-02T20:34:44.577Z,3.80
2023-03-02T20:37:07.579Z,3.78
2023-03-02T20:39:33.908Z,3.72
2023-03-02T20:41:56.747Z,3.69
2023-03-02T20:44:20.719Z,3.66
2023-03-02T20:46:48.430Z,3.61
2023-03-02T20:49:15.281Z,3.55
2023-03-02T20:51:39.596Z,3.50
2023-03-02T20:54:02.668Z,3.49
2023-03-02T20:56:25.666Z,3.43
2023-03-02T20:58:48.147Z,3.39
2023-03-02T21:01:11.686Z,3.36
2023-03-02T21:03:33.943Z,3.36
2023-03-02T21:05:55.963Z,3.34
2023-03-02T21:08:17.544Z,3.33
2023-03-02T21:10:39.292Z,3.28
2023-03-02T21:13:02.272Z,3.27
2023-03-02T21:15:27.132Z,3.24
2023-03-02T21:17:51.786Z,3.21
2023-03-02T21:20:14.411Z,3.21
2023-03-02T21:22:36.595Z,3.20
2023-03-02T21:24:58.318Z,3.15
2023-03-02T21:27:21.010Z,3.13
2023-03-02T21:29:42.743Z,3.11
2023-03-02T21:32:07.610Z,3.08
2023-03-02T21:34:29.706Z,3.08
2023-03-02T21:36:54.617Z,3.09
2023-03-02T21:39:16.598Z,3.04
2023-03-02T21:41:38.544Z,3.01
2023-03-02T21:44:00.163Z,2.97
2023-03-02T21:46:23.201Z,2.93
2023-03-02T21:48:45.597Z,2.91
2023-03-02T21:51:07.362Z,2.89
2023-03-02T21:53:29.033Z,2.85
2023-03-02T21:55:53.580Z,2.83
2023-03-02T21:58:16.250Z,2.78
2023-03-02T22:00:39.951Z,2.74
2023-03-02T22:03:02.904Z,2.72
2023-03-02T22:05:25.414Z,2.69
2023-03-02T22:07:47.896Z,2.67
2023-03-02T22:10:38.715Z,2.69
2023-03-02T22:13:25.858Z,2.68
2023-03-02T22:15:50.921Z,2.66
2023-03-02T22:18:25.057Z,2.63
2023-03-02T22:20:50.531Z,2.59
2023-03-02T22:23:16.759Z,2.60
2023-03-02T22:25:38.826Z,2.57
2023-03-02T22:28:00.432Z,2.59
2023-03-02T22:30:23.820Z,2.57
2023-03-02T22:32:45.510Z,2.56
2023-03-02T22:35:27.610Z,2.53
2023-03-02T22:37:52.002Z,2.51
2023-03-02T22:40:29.607Z,2.46
2023-03-02T22:43:11.152Z,2.43
2023-03-02T22:45:35.607Z,2.42
2023-03-02T22:47:58.423Z,2.36
2023-03-02T22:50:26.305Z,2.32
2023-03-02T22:52:47.995Z,2.29
2023-03-02T22:55:35.303Z,2.25
2023-03-02T22:57:57.187Z,2.20
2023-03-02T23:00:18.740Z,2.17
2023-03-02T23:02:45.154Z,2.17
2023-03-02T23:05:39.368Z,2.19
2023-03-02T23:08:21.485Z,2.20
2023-03-02T23:10:44.515Z,2.21
2023-03-02T23:13:08.241Z,2.28
2023-03-02T23:15:29.815Z,2.31
2023-03-02T23:17:51.452Z,2.34
2023-03-02T23:20:16.241Z,2.35
2023-03-02T23:22:39.071Z,2.36
2023-03-02T23:25:00.814Z,2.37
2023-03-02T23:27:24.266Z,2.38
2023-03-02T23:29:45.962Z,2.37
2023-03-02T23:32:08.526Z,2.35
2023-03-02T23:34:32.962Z,2.26
2023-03-02T23:36:54.527Z,2.19
2023-03-02T23:39:17.593Z,2.12
2023-03-02T23:41:39.327Z,2.01
2023-03-02T23:44:01.057Z,1.95
2023-03-02T23:46:22.911Z,1.94
2023-03-02T23:48:44.624Z,1.92
2023-03-02T23:51:06.924Z,1.92
2023-03-02T23:53:28.626Z,1.93
2023-03-02T23:55:53.802Z,1.91
2023-03-02T23:58:16.899Z,1.87
